createdAt,value
2022-10-19T00:00:45.192Z,1018.7
2022-10-19T00:01:49.197Z,1018.7
2022-10-19T00:02:51.918Z,1018.7
2022-10-19T00:03:54.728Z,1018.7
2022-10-19T00:04:57.279Z,1018.7
2022-10-19T00:06:00.434Z,1018.6
2022-10-19T00:07:03.149Z,1018.7
2022-10-19T00:08:05.740Z,1018.7
2022-10-19T00:09:08.537Z,1018.7
2022-10-19T00:10:11.178Z,1018.7
2022-10-19T00:11:13.796Z,1018.7
2022-10-19T00:12:16.512Z,1018.7
2022-10-19T00:13:19.406Z,1018.7
2022-10-19T00:14:22.206Z,1018.7
2022-10-19T00:15:25.640Z,1018.7
2022-10-19T00:16:28.714Z,1018.7
2022-10-19T00:17:33.508Z,1018.8
2022-10-19T00:18:37.777Z,1018.7
2022-10-19T00:19:40.859Z,1018.7
2022-10-19T00:20:43.568Z,1018.8
2022-10-19T00:21:46.489Z,1018.7
2022-10-19T00:22:49.593Z,1018.7
2022-10-19T00:23:52.660Z,1018.8
2022-10-19T00:24:56.011Z,1018.8
2022-10-19T00:25:59.079Z,1018.7
2022-10-19T00:27:02.418Z,1018.8
2022-10-19T00:28:06.194Z,1018.8
2022-10-19T00:29:09.778Z,1018.8
2022-10-19T00:30:13.526Z,1018.8
2022-10-19T00:31:16.683Z,1018.9
2022-10-19T00:32:20.045Z,1018.8
2022-10-19T00:33:23.961Z,1018.9
2022-10-19T00:34:27.025Z,1018.9
2022-10-19T00:35:30.280Z,1018.9
2022-10-19T00:36:33.270Z,1018.9
2022-10-19T00:37:36.333Z,1018.9
2022-10-19T00:38:39.388Z,1018.9
2022-10-19T00:39:42.772Z,1018.9
2022-10-19T00:40:45.376Z,1018.9
2022-10-19T00:41:48.365Z,1018.9
2022-10-19T00:42:51.303Z,1018.9
2022-10-19T00:43:54.166Z,1018.9
2022-10-19T00:44:56.955Z,1018.9
2022-10-19T00:45:59.927Z,1018.9
2022-10-19T00:47:03.584Z,1018.9
2022-10-19T00:48:06.261Z,1018.9
2022-10-19T00:49:11.537Z,1018.9
2022-10-19T00:50:14.728Z,1018.8
2022-10-19T00:51:17.643Z,1018.8
2022-10-19T00:52:20.737Z,1018.9
2022-10-19T00:53:23.527Z,1018.8
2022-10-19T00:54:26.400Z,1018.9
2022-10-19T00:55:29.318Z,1018.9
2022-10-19T00:56:31.992Z,1018.9
2022-10-19T00:57:35.367Z,1018.8
2022-10-19T00:58:37.917Z,1018.8
2022-10-19T00:59:40.988Z,1018.8
2022-10-19T01:00:43.663Z,1018.8
2022-10-19T01:01:46.517Z,1018.8
2022-10-19T01:02:49.697Z,1018.8
2022-10-19T01:03:52.677Z,1018.8
2022-10-19T01:04:56.798Z,1018.8
2022-10-19T01:06:00.244Z,1018.8
2022-10-19T01:07:03.524Z,1018.8
2022-10-19T01:08:05.836Z,1018.8
2022-10-19T01:09:08.356Z,1018.8
2022-10-19T01:10:11.495Z,1018.9
2022-10-19T01:11:15.574Z,1018.8
2022-10-19T01:12:18.283Z,1018.8
2022-10-19T01:13:21.359Z,1018.8
2022-10-19T01:14:24.805Z,1018.8
2022-10-19T01:15:27.880Z,1018.8
2022-10-19T01:16:30.744Z,1018.8
2022-10-19T01:17:34.507Z,1018.8
2022-10-19T01:18:38.037Z,1018.8
2022-10-19T01:19:40.928Z,1018.8
2022-10-19T01:20:45.018Z,1018.8
2022-10-19T01:21:48.650Z,1018.9
2022-10-19T01:22:51.578Z,1018.9
2022-10-19T01:23:54.646Z,1018.9
2022-10-19T01:24:57.085Z,1018.9
2022-10-19T01:25:59.877Z,1018.8
2022-10-19T01:27:03.524Z,1018.9
2022-10-19T01:28:05.837Z,1018.8
2022-10-19T01:29:09.114Z,1018.9
2022-10-19T01:30:12.816Z,1018.8
2022-10-19T01:31:15.209Z,1018.8
2022-10-19T01:32:17.923Z,1018.8
2022-10-19T01:33:20.585Z,1018.9
2022-10-19T01:34:23.668Z,1018.8
2022-10-19T01:35:26.383Z,1018.8
2022-10-19T01:36:30.583Z,1018.7
2022-10-19T01:37:34.339Z,1018.7
2022-10-19T01:38:38.797Z,1018.7
2022-10-19T01:39:46.383Z,1018.8
2022-10-19T01:40:53.032Z,1018.8
2022-10-19T01:41:56.564Z,1018.8
2022-10-19T01:43:00.003Z,1018.8
2022-10-19T01:44:02.823Z,1018.7
2022-10-19T01:45:05.618Z,1018.7
2022-10-19T01:46:08.962Z,1018.7
2022-10-19T01:47:12.496Z,1018.8
2022-10-19T01:48:15.504Z,1018.8
2022-10-19T01:49:18.583Z,1018.8
2022-10-19T01:50:21.647Z,1018.8
2022-10-19T01:51:24.710Z,1018.9
2022-10-19T01:52:28.911Z,1018.8
2022-10-19T01:53:32.146Z,1018.8
2022-10-19T01:54:34.954Z,1018.8
2022-10-19T01:55:37.827Z,1018.8
2022-10-19T01:56:40.619Z,1018.8
2022-10-19T01:57:43.323Z,1018.8
2022-10-19T01:58:45.901Z,1018.8
2022-10-19T01:59:48.961Z,1018.8
2022-10-19T02:00:51.948Z,1018.8
2022-10-19T02:01:56.027Z,1018.8
2022-10-19T02:02:58.818Z,1018.7
2022-10-19T02:04:01.980Z,1018.8
2022-10-19T02:05:05.041Z,1018.8
2022-10-19T02:06:07.909Z,1018.8
2022-10-19T02:07:10.417Z,1018.8
2022-10-19T02:08:14.039Z,1018.8
2022-10-19T02:09:16.554Z,1018.8
2022-10-19T02:10:20.001Z,1018.8
2022-10-19T02:11:23.013Z,1018.8
2022-10-19T02:12:25.830Z,1018.8
2022-10-19T02:13:29.586Z,1018.7
2022-10-19T02:14:32.942Z,1018.7
2022-10-19T02:15:36.265Z,1018.7
2022-10-19T02:16:39.607Z,1018.6
2022-10-19T02:17:43.140Z,1018.7
2022-10-19T02:18:45.661Z,1018.7
2022-10-19T02:19:48.728Z,1018.6
2022-10-19T02:20:51.515Z,1018.7
2022-10-19T02:21:54.598Z,1018.7
2022-10-19T02:22:57.114Z,1018.7
2022-10-19T02:24:01.266Z,1018.7
2022-10-19T02:25:04.729Z,1018.7
2022-10-19T02:26:08.087Z,1018.8
2022-10-19T02:27:11.245Z,1018.8
2022-10-19T02:28:14.253Z,1018.8
2022-10-19T02:29:18.051Z,1018.8
2022-10-19T02:30:20.747Z,1018.8
2022-10-19T02:31:23.329Z,1018.8
2022-10-19T02:32:26.106Z,1018.7
2022-10-19T02:33:28.722Z,1018.8
2022-10-19T02:34:31.145Z,1018.8
2022-10-19T02:35:34.757Z,1018.8
2022-10-19T02:36:37.841Z,1018.7
2022-10-19T02:37:40.789Z,1018.7
2022-10-19T02:38:42.820Z,1018.8
2022-10-19T02:39:46.676Z,1018.8
2022-10-19T02:40:50.124Z,1018.8
2022-10-19T02:41:53.215Z,1018.8
2022-10-19T02:42:56.003Z,1018.8
2022-10-19T02:43:59.217Z,1018.8
2022-10-19T02:45:01.737Z,1018.8
2022-10-19T02:46:04.522Z,1018.8
2022-10-19T02:47:07.675Z,1018.8
2022-10-19T02:48:10.113Z,1018.8
2022-10-19T02:49:13.465Z,1018.8
2022-10-19T02:50:16.069Z,1018.8
2022-10-19T02:51:18.947Z,1018.9
2022-10-19T02:52:22.406Z,1018.9
2022-10-19T02:53:25.669Z,1018.8
2022-10-19T02:54:28.386Z,1018.9
2022-10-19T02:55:32.349Z,1018.8
2022-10-19T02:56:35.895Z,1018.8
2022-10-19T02:57:39.435Z,1018.8
2022-10-19T02:58:41.684Z,1018.8
2022-10-19T02:59:45.108Z,1018.9
2022-10-19T03:00:48.942Z,1018.9
2022-10-19T03:01:52.940Z,1018.9
2022-10-19T03:02:56.336Z,1018.9
2022-10-19T03:03:59.407Z,1018.9
2022-10-19T03:05:02.662Z,1018.9
2022-10-19T03:06:06.387Z,1018.9
2022-10-19T03:07:09.604Z,1018.9
2022-10-19T03:08:12.598Z,1019
2022-10-19T03:09:15.406Z,1019
2022-10-19T03:10:18.469Z,1018.9
2022-10-19T03:11:22.293Z,1019
2022-10-19T03:12:25.085Z,1019
2022-10-19T03:13:27.928Z,1019
2022-10-19T03:14:31.369Z,1019
2022-10-19T03:15:34.765Z,1019
2022-10-19T03:16:37.913Z,1018.9
2022-10-19T03:17:40.701Z,1019
2022-10-19T03:18:42.924Z,1018.9
2022-10-19T03:19:45.620Z,1019
2022-10-19T03:20:48.404Z,1019
2022-10-19T03:21:51.197Z,1019
2022-10-19T03:22:54.684Z,1019
2022-10-19T03:23:57.906Z,1019
2022-10-19T03:25:00.221Z,1019
2022-10-19T03:26:02.665Z,1019
2022-10-19T03:27:13.973Z,1019
2022-10-19T03:28:17.399Z,1019
2022-10-19T03:29:20.639Z,1019
2022-10-19T03:30:23.072Z,1019
2022-10-19T03:31:25.679Z,1019
2022-10-19T03:32:28.405Z,1019
2022-10-19T03:33:30.759Z,1019
2022-10-19T03:34:33.500Z,1019
2022-10-19T03:35:36.701Z,1019
2022-10-19T03:36:39.696Z,1019
2022-10-19T03:37:42.874Z,1019
2022-10-19T03:38:45.750Z,1019
2022-10-19T03:39:49.743Z,1019.1
2022-10-19T03:40:53.744Z,1019
2022-10-19T03:41:56.528Z,1019.1
2022-10-19T03:43:00.652Z,1019.1
2022-10-19T03:44:03.163Z,1019.1
2022-10-19T03:45:06.038Z,1019
2022-10-19T03:46:08.933Z,1019.1
2022-10-19T03:47:12.151Z,1019.1
2022-10-19T03:48:15.211Z,1019.1
2022-10-19T03:49:17.998Z,1019.1
2022-10-19T03:50:20.429Z,1019.1
2022-10-19T03:51:22.653Z,1019.1
2022-10-19T03:52:25.422Z,1019.1
2022-10-19T03:53:27.837Z,1019.1
2022-10-19T03:54:34.710Z,1019.1
2022-10-19T03:55:37.413Z,1019.1
2022-10-19T03:56:40.085Z,1019.2
2022-10-19T03:57:42.602Z,1019.2
2022-10-19T03:58:46.718Z,1019.2
2022-10-19T03:59:49.297Z,1019.2
2022-10-19T04:00:52.108Z,1019.3
2022-10-19T04:01:55.174Z,1019.2
2022-10-19T04:02:58.242Z,1019.3
2022-10-19T04:04:01.677Z,1019.3
2022-10-19T04:05:05.096Z,1019.3
2022-10-19T04:06:07.989Z,1019.3
2022-10-19T04:07:10.779Z,1019.3
2022-10-19T04:08:14.046Z,1019.2
2022-10-19T04:09:17.197Z,1019.3
2022-10-19T04:10:19.744Z,1019.3
2022-10-19T04:11:23.100Z,1019.3
2022-10-19T04:12:26.168Z,1019.3
2022-10-19T04:13:28.881Z,1019.4
2022-10-19T04:14:56.165Z,1019.3
2022-10-19T04:16:00.786Z,1019.3
2022-10-19T04:17:03.057Z,1019.4
2022-10-19T04:18:06.412Z,1019.3
2022-10-19T04:19:08.954Z,1019.3
2022-10-19T04:20:12.307Z,1019.3
2022-10-19T04:21:15.479Z,1019.3
2022-10-19T04:22:18.077Z,1019.3
2022-10-19T04:23:21.421Z,1019.4
2022-10-19T04:24:24.082Z,1019.4
2022-10-19T04:25:27.528Z,1019.3
2022-10-19T04:26:30.245Z,1019.4
2022-10-19T04:27:34.254Z,1019.4
2022-10-19T04:28:37.968Z,1019.4
2022-10-19T04:29:42.539Z,1019.4
2022-10-19T04:30:45.867Z,1019.5
2022-10-19T04:31:49.137Z,1019.5
2022-10-19T04:32:52.275Z,1019.5
2022-10-19T04:33:54.988Z,1019.5
2022-10-19T04:34:58.070Z,1019.5
2022-10-19T04:36:01.413Z,1019.5
2022-10-19T04:37:04.407Z,1019.5
2022-10-19T04:38:07.558Z,1019.5
2022-10-19T04:39:11.013Z,1019.5
2022-10-19T04:40:15.435Z,1019.6
2022-10-19T04:41:19.179Z,1019.6
2022-10-19T04:42:22.515Z,1019.6
2022-10-19T04:43:24.940Z,1019.6
2022-10-19T04:44:26.918Z,1019.6
2022-10-19T04:45:30.762Z,1019.6
2022-10-19T04:46:33.576Z,1019.6
2022-10-19T04:47:37.087Z,1019.6
2022-10-19T04:48:40.256Z,1019.5
2022-10-19T04:49:42.436Z,1019.5
2022-10-19T04:50:45.788Z,1019.5
2022-10-19T04:51:48.775Z,1019.5
2022-10-19T04:52:51.766Z,1019.5
2022-10-19T04:53:59.555Z,1019.6
2022-10-19T04:55:02.766Z,1019.6
2022-10-19T04:56:06.486Z,1019.6
2022-10-19T04:57:09.952Z,1019.6
2022-10-19T04:58:13.034Z,1019.6
2022-10-19T04:59:16.720Z,1019.7
2022-10-19T05:00:19.715Z,1019.7
2022-10-19T05:01:24.069Z,1019.6
2022-10-19T05:02:27.352Z,1019.6
2022-10-19T05:03:30.434Z,1019.6
2022-10-19T05:04:33.214Z,1019.6
2022-10-19T05:05:35.926Z,1019.6
2022-10-19T05:06:39.564Z,1019.6
2022-10-19T05:07:41.999Z,1019.6
2022-10-19T05:08:45.076Z,1019.6
2022-10-19T05:09:48.171Z,1019.6
2022-10-19T05:10:51.248Z,1019.6
2022-10-19T05:11:54.313Z,1019.7
2022-10-19T05:12:57.730Z,1019.7
2022-10-19T05:14:00.548Z,1019.6
2022-10-19T05:15:03.622Z,1019.7
2022-10-19T05:16:07.097Z,1019.7
2022-10-19T05:17:10.905Z,1019.8
2022-10-19T05:18:13.757Z,1019.7
2022-10-19T05:19:17.222Z,1019.8
2022-10-19T05:20:20.752Z,1019.8
2022-10-19T05:21:23.549Z,1019.8
2022-10-19T05:22:26.544Z,1019.8
2022-10-19T05:23:29.755Z,1019.8
2022-10-19T05:24:31.996Z,1019.8
2022-10-19T05:25:34.716Z,1019.8
2022-10-19T05:26:38.158Z,1019.8
2022-10-19T05:27:40.944Z,1019.8
2022-10-19T05:28:44.450Z,1019.8
2022-10-19T05:29:47.821Z,1019.9
2022-10-19T05:30:50.332Z,1019.8
2022-10-19T05:31:53.434Z,1019.9
2022-10-19T05:32:57.603Z,1019.9
2022-10-19T05:34:01.111Z,1019.9
2022-10-19T05:35:04.966Z,1019.9
2022-10-19T05:36:07.853Z,1019.9
2022-10-19T05:37:11.221Z,1019.9
2022-10-19T05:38:14.592Z,1019.9
2022-10-19T05:39:16.823Z,1019.9
2022-10-19T05:40:19.604Z,1019.9
2022-10-19T05:41:22.028Z,1019.9
2022-10-19T05:42:25.374Z,1019.9
2022-10-19T05:43:28.798Z,1019.9
2022-10-19T05:44:32.261Z,1019.8
2022-10-19T05:45:35.355Z,1019.9
2022-10-19T05:46:38.143Z,1019.9
2022-10-19T05:47:40.855Z,1019.9
2022-10-19T05:48:45.260Z,1019.9
2022-10-19T05:49:48.439Z,1019.9
2022-10-19T05:50:51.515Z,1020
2022-10-19T05:51:54.581Z,1020
2022-10-19T05:52:57.562Z,1020
2022-10-19T05:54:00.609Z,1020
2022-10-19T05:55:03.675Z,1020
2022-10-19T05:56:06.669Z,1019.9
2022-10-19T05:57:09.393Z,1019.9
2022-10-19T05:58:12.103Z,1019.9
2022-10-19T05:59:14.863Z,1020
2022-10-19T06:00:18.367Z,1020
2022-10-19T06:01:20.873Z,1020
2022-10-19T06:02:24.126Z,1020
2022-10-19T06:03:27.270Z,1020
2022-10-19T06:04:31.376Z,1020
2022-10-19T06:05:34.789Z,1020
2022-10-19T06:06:38.205Z,1020
2022-10-19T06:07:41.604Z,1020
2022-10-19T06:08:45.610Z,1020.1
2022-10-19T06:09:49.022Z,1020
2022-10-19T06:10:51.801Z,1020.1
2022-10-19T06:11:54.310Z,1020.1
2022-10-19T06:12:57.811Z,1020.1
2022-10-19T06:14:00.398Z,1020.1
2022-10-19T06:15:03.077Z,1020.1
2022-10-19T06:16:05.919Z,1020.1
2022-10-19T06:17:08.909Z,1020.1
2022-10-19T06:18:12.277Z,1020.1
2022-10-19T06:19:15.918Z,1020.1
2022-10-19T06:20:19.825Z,1020.2
2022-10-19T06:21:22.961Z,1020.2
2022-10-19T06:22:26.419Z,1020.2
2022-10-19T06:23:29.267Z,1020.2
2022-10-19T06:24:32.569Z,1020.2
2022-10-19T06:25:35.789Z,1020.3
2022-10-19T06:26:39.222Z,1020.3
2022-10-19T06:27:42.371Z,1020.3
2022-10-19T06:28:45.840Z,1020.3
2022-10-19T06:29:49.259Z,1020.3
2022-10-19T06:30:52.189Z,1020.3
2022-10-19T06:31:55.193Z,1020.3
2022-10-19T06:32:58.861Z,1020.3
2022-10-19T06:34:02.853Z,1020.3
2022-10-19T06:35:06.891Z,1020.3
2022-10-19T06:36:11.105Z,1020.3
2022-10-19T06:37:13.967Z,1020.2
2022-10-19T06:38:17.442Z,1020.3
2022-10-19T06:39:19.882Z,1020.3
2022-10-19T06:40:23.014Z,1020.3
2022-10-19T06:41:25.694Z,1020.3
2022-10-19T06:42:29.358Z,1020.2
2022-10-19T06:43:32.871Z,1020.3
2022-10-19T06:44:36.303Z,1020.3
2022-10-19T06:45:39.366Z,1020.3
2022-10-19T06:46:42.154Z,1020.2
2022-10-19T06:47:48.859Z,1020.3
2022-10-19T06:48:52.221Z,1020.3
2022-10-19T06:49:55.839Z,1020.3
2022-10-19T06:50:59.053Z,1020.3
2022-10-19T06:52:02.911Z,1020.3
2022-10-19T06:53:05.987Z,1020.3
2022-10-19T06:54:09.078Z,1020.3
2022-10-19T06:55:12.251Z,1020.3
2022-10-19T06:56:15.696Z,1020.3
2022-10-19T06:57:19.151Z,1020.3
2022-10-19T06:58:21.420Z,1020.3
2022-10-19T06:59:24.877Z,1020.3
2022-10-19T07:00:27.297Z,1020.3
2022-10-19T07:01:30.675Z,1020.3
2022-10-19T07:02:33.784Z,1020.3
2022-10-19T07:03:37.303Z,1020.3
2022-10-19T07:04:40.734Z,1020.4
2022-10-19T07:05:44.118Z,1020.4
2022-10-19T07:06:47.392Z,1020.4
2022-10-19T07:07:51.609Z,1020.4
2022-10-19T07:08:55.474Z,1020.4
2022-10-19T07:09:58.939Z,1020.4
2022-10-19T07:11:02.020Z,1020.4
2022-10-19T07:12:05.297Z,1020.5
2022-10-19T07:14:12.590Z,1020.5
2022-10-19T07:15:15.728Z,1020.5
2022-10-19T07:16:21.998Z,1020.5
2022-10-19T07:17:24.744Z,1020.5
2022-10-19T07:18:27.718Z,1020.5
2022-10-19T07:19:31.053Z,1020.5
2022-10-19T07:20:34.101Z,1020.5
2022-10-19T07:21:37.266Z,1020.5
2022-10-19T07:22:40.614Z,1020.5
2022-10-19T07:23:44.835Z,1020.5
2022-10-19T07:24:47.642Z,1020.5
2022-10-19T07:25:51.171Z,1020.5
2022-10-19T07:26:54.839Z,1020.5
2022-10-19T07:27:57.447Z,1020.5
2022-10-19T07:29:00.711Z,1020.5
2022-10-19T07:30:04.159Z,1020.5
2022-10-19T07:31:07.850Z,1020.5
2022-10-19T07:32:11.203Z,1020.5
2022-10-19T07:33:14.354Z,1020.5
2022-10-19T07:34:17.010Z,1020.5
2022-10-19T07:35:20.463Z,1020.6
2022-10-19T07:36:23.135Z,1020.6
2022-10-19T07:37:25.853Z,1020.6
2022-10-19T07:38:29.027Z,1020.7
2022-10-19T07:39:32.882Z,1020.7
2022-10-19T07:40:35.895Z,1020.6
2022-10-19T07:41:39.258Z,1020.7
2022-10-19T07:42:42.658Z,1020.7
2022-10-19T07:43:45.371Z,1020.7
2022-10-19T07:44:48.817Z,1020.7
2022-10-19T07:45:52.062Z,1020.6
2022-10-19T07:46:54.786Z,1020.7
2022-10-19T07:47:57.723Z,1020.7
2022-10-19T07:49:00.879Z,1020.7
2022-10-19T07:50:04.602Z,1020.7
2022-10-19T07:51:08.024Z,1020.7
2022-10-19T07:52:10.891Z,1020.7
2022-10-19T07:53:14.393Z,1020.7
2022-10-19T07:54:18.023Z,1020.7
2022-10-19T07:55:22.279Z,1020.8
2022-10-19T07:56:25.629Z,1020.8
2022-10-19T07:57:28.807Z,1020.7
2022-10-19T07:58:31.406Z,1020.7
2022-10-19T07:59:33.923Z,1020.7
2022-10-19T08:00:35.931Z,1020.7
2022-10-19T08:01:39.201Z,1020.7
2022-10-19T08:03:31.472Z,1020.7
2022-10-19T08:06:14.063Z,1020.7
2022-10-19T08:07:17.418Z,1020.7
2022-10-19T08:08:19.939Z,1020.6
2022-10-19T08:09:53.518Z,1020.7
2022-10-19T08:10:58.990Z,1020.6
2022-10-19T08:12:01.900Z,1020.6
2022-10-19T08:13:05.359Z,1020.6
2022-10-19T08:14:08.621Z,1020.6
2022-10-19T08:15:11.509Z,1020.6
2022-10-19T08:16:14.026Z,1020.6
2022-10-19T08:17:17.656Z,1020.6
2022-10-19T08:18:21.042Z,1020.7
2022-10-19T08:19:24.651Z,1020.7
2022-10-19T08:20:27.724Z,1020.6
2022-10-19T08:21:30.905Z,1020.7
2022-10-19T08:22:35.670Z,1020.7
2022-10-19T08:23:39.687Z,1020.7
2022-10-19T08:24:42.500Z,1020.8
2022-10-19T08:25:45.776Z,1020.8
2022-10-19T08:26:49.956Z,1020.9
2022-10-19T08:27:53.419Z,1020.8
2022-10-19T08:28:56.676Z,1020.9
2022-10-19T08:30:00.040Z,1020.8
2022-10-19T08:31:03.835Z,1020.8
2022-10-19T08:32:07.565Z,1020.8
2022-10-19T08:33:10.369Z,1020.8
2022-10-19T08:34:13.517Z,1020.8
2022-10-19T08:35:16.596Z,1020.8
2022-10-19T08:36:19.405Z,1020.8
2022-10-19T08:37:44.994Z,1020.8
2022-10-19T08:38:50.924Z,1020.9
2022-10-19T08:39:54.651Z,1020.8
2022-10-19T08:40:57.238Z,1020.9
2022-10-19T08:42:01.360Z,1020.9
2022-10-19T08:43:04.731Z,1020.9
2022-10-19T08:44:10.775Z,1020.9
2022-10-19T08:45:14.230Z,1020.9
2022-10-19T08:46:16.945Z,1020.9
2022-10-19T08:47:23.992Z,1020.9
2022-10-19T08:48:27.629Z,1020.9
2022-10-19T08:49:30.492Z,1021
2022-10-19T08:50:34.195Z,1020.9
2022-10-19T08:51:37.647Z,1021
2022-10-19T08:52:40.742Z,1021
2022-10-19T08:53:44.354Z,1021
2022-10-19T08:55:49.735Z,1021
2022-10-19T08:56:53.090Z,1021
2022-10-19T08:57:57.350Z,1021
2022-10-19T08:59:00.703Z,1021
2022-10-19T09:00:03.268Z,1020.9
2022-10-19T09:01:06.726Z,1021
2022-10-19T09:02:10.083Z,1020.9
2022-10-19T09:03:12.610Z,1020.9
2022-10-19T09:04:19.362Z,1020.8
2022-10-19T09:05:23.365Z,1020.8
2022-10-19T09:06:26.519Z,1020.8
2022-10-19T09:07:29.950Z,1020.8
2022-10-19T09:08:33.814Z,1020.8
2022-10-19T09:09:37.321Z,1020.8
2022-10-19T09:10:39.837Z,1020.7
2022-10-19T09:11:42.830Z,1020.7
2022-10-19T09:12:45.826Z,1020.7
2022-10-19T09:14:06.588Z,1020.7
2022-10-19T09:15:10.489Z,1020.7
2022-10-19T09:16:13.284Z,1020.8
2022-10-19T09:17:16.351Z,1020.8
2022-10-19T09:18:20.092Z,1020.8
2022-10-19T09:19:22.536Z,1020.9
2022-10-19T09:20:25.243Z,1020.9
2022-10-19T09:21:40.942Z,1020.9
2022-10-19T09:22:50.160Z,1020.9
2022-10-19T09:23:52.692Z,1021
2022-10-19T09:24:56.042Z,1021
2022-10-19T09:25:59.023Z,1021
2022-10-19T09:27:02.440Z,1021
2022-10-19T09:28:05.240Z,1021
2022-10-19T09:29:08.796Z,1020.9
2022-10-19T09:30:12.276Z,1020.9
2022-10-19T09:31:15.826Z,1020.9
2022-10-19T09:32:18.903Z,1020.9
2022-10-19T09:33:21.580Z,1020.9
2022-10-19T09:34:24.381Z,1021
2022-10-19T09:35:27.813Z,1020.9
2022-10-19T09:36:50.906Z,1021
2022-10-19T09:37:54.193Z,1021
2022-10-19T09:38:56.749Z,1021
2022-10-19T09:40:00.139Z,1021
2022-10-19T09:41:03.822Z,1021
2022-10-19T09:42:06.885Z,1021
2022-10-19T09:43:09.873Z,1021
2022-10-19T09:44:14.021Z,1021
2022-10-19T09:45:17.068Z,1021
2022-10-19T09:46:21.107Z,1021
2022-10-19T09:47:24.195Z,1021
2022-10-19T09:48:27.693Z,1021
2022-10-19T09:49:30.947Z,1021.1
2022-10-19T09:50:34.129Z,1021
2022-10-19T09:51:37.655Z,1021
2022-10-19T09:52:40.107Z,1021
2022-10-19T09:53:43.115Z,1021
2022-10-19T09:54:46.287Z,1021.1
2022-10-19T09:56:52.367Z,1021.1
2022-10-19T09:57:55.257Z,1021.1
2022-10-19T09:58:58.350Z,1021.1
2022-10-19T10:00:02.526Z,1021.2
2022-10-19T10:01:05.989Z,1021.2
2022-10-19T10:02:09.442Z,1021.1
2022-10-19T10:03:12.883Z,1021.2
2022-10-19T10:04:17.336Z,1021.1
2022-10-19T10:05:20.511Z,1021.1
2022-10-19T10:06:23.306Z,1021.1
2022-10-19T10:07:26.380Z,1021.1
2022-10-19T10:08:29.976Z,1021.1
2022-10-19T10:09:33.163Z,1021.1
2022-10-19T10:11:44.502Z,1021.1
2022-10-19T10:13:57.503Z,1021.1
2022-10-19T10:15:07.280Z,1021.1
2022-10-19T10:17:20.077Z,1021.2
2022-10-19T10:18:24.114Z,1021.2
2022-10-19T10:19:27.853Z,1021.3
2022-10-19T10:20:30.743Z,1021.2
2022-10-19T10:21:33.927Z,1021.2
2022-10-19T10:22:38.033Z,1021.3
2022-10-19T10:23:41.040Z,1021.3
2022-10-19T10:24:44.691Z,1021.2
2022-10-19T10:25:47.235Z,1021.2
2022-10-19T10:26:50.854Z,1021.2
2022-10-19T10:27:54.034Z,1021.2
2022-10-19T10:29:01.497Z,1021.2
2022-10-19T10:30:05.532Z,1021.2
2022-10-19T10:31:09.212Z,1021.2
2022-10-19T10:32:13.008Z,1021.2
2022-10-19T10:33:40.624Z,1021.2
2022-10-19T10:34:55.901Z,1021.2
2022-10-19T10:36:03.974Z,1021.3
2022-10-19T10:37:07.743Z,1021.3
2022-10-19T10:38:11.026Z,1021.3
2022-10-19T10:39:14.264Z,1021.3
2022-10-19T10:40:23.573Z,1021.3
2022-10-19T10:41:27.381Z,1021.3
2022-10-19T10:42:30.453Z,1021.3
2022-10-19T10:43:34.324Z,1021.3
2022-10-19T10:44:36.954Z,1021.3
2022-10-19T10:45:40.409Z,1021.3
2022-10-19T10:46:43.629Z,1021.3
2022-10-19T10:47:47.160Z,1021.3
2022-10-19T10:48:53.873Z,1021.2
2022-10-19T10:49:57.250Z,1021.2
2022-10-19T10:51:00.139Z,1021.2
2022-10-19T10:52:02.855Z,1021.3
2022-10-19T10:53:05.763Z,1021.3
2022-10-19T10:54:09.143Z,1021.3
2022-10-19T10:55:12.305Z,1021.3
2022-10-19T10:56:14.744Z,1021.3
2022-10-19T10:57:18.199Z,1021.3
2022-10-19T10:58:23.342Z,1021.3
2022-10-19T10:59:32.994Z,1021.3
2022-10-19T11:00:35.707Z,1021.3
2022-10-19T11:01:39.210Z,1021.3
2022-10-19T11:02:43.486Z,1021.2
2022-10-19T11:03:47.200Z,1021.3
2022-10-19T11:04:52.972Z,1021.3
2022-10-19T11:05:56.046Z,1021.3
2022-10-19T11:06:58.920Z,1021.3
2022-10-19T11:08:01.713Z,1021.2
2022-10-19T11:09:05.087Z,1021.2
2022-10-19T11:10:08.276Z,1021.2
2022-10-19T11:11:11.209Z,1021.2
2022-10-19T11:12:14.550Z,1021.2
2022-10-19T11:13:17.921Z,1021.2
2022-10-19T11:14:20.736Z,1021.2
2022-10-19T11:15:23.641Z,1021.2
2022-10-19T11:16:27.196Z,1021.1
2022-10-19T11:17:30.904Z,1021.2
2022-10-19T11:18:35.785Z,1021.2
2022-10-19T11:19:39.619Z,1021.2
2022-10-19T11:20:42.594Z,1021.2
2022-10-19T11:21:45.736Z,1021.2
2022-10-19T11:22:49.192Z,1021.2
2022-10-19T11:23:52.267Z,1021.2
2022-10-19T11:24:55.978Z,1021.2
2022-10-19T11:25:59.054Z,1021.1
2022-10-19T11:27:02.548Z,1021.1
2022-10-19T11:28:05.733Z,1021.1
2022-10-19T11:29:08.822Z,1021.1
2022-10-19T11:30:12.813Z,1021.1
2022-10-19T11:31:15.994Z,1021
2022-10-19T11:32:19.716Z,1021.1
2022-10-19T11:33:22.713Z,1021.1
2022-10-19T11:34:26.643Z,1021.1
2022-10-19T11:35:30.406Z,1021.1
2022-10-19T11:36:32.962Z,1021.1
2022-10-19T11:37:45.542Z,1021
2022-10-19T11:39:31.930Z,1021
2022-10-19T11:40:34.642Z,1021
2022-10-19T11:41:37.738Z,1021
2022-10-19T11:42:41.277Z,1021
2022-10-19T11:43:44.823Z,1021
2022-10-19T11:44:48.271Z,1021
2022-10-19T11:45:52.070Z,1021
2022-10-19T11:46:55.159Z,1020.9
2022-10-19T11:47:57.932Z,1021
2022-10-19T11:49:00.937Z,1020.9
2022-10-19T11:50:04.342Z,1020.9
2022-10-19T11:51:22.216Z,1020.9
2022-10-19T11:52:25.982Z,1020.8
2022-10-19T11:53:29.130Z,1020.9
2022-10-19T11:54:31.923Z,1020.8
2022-10-19T11:55:35.650Z,1020.8
2022-10-19T11:57:04.190Z,1020.8
2022-10-19T11:58:14.564Z,1020.8
2022-10-19T11:59:17.347Z,1020.8
2022-10-19T12:00:40.185Z,1020.7
2022-10-19T12:01:44.071Z,1020.7
2022-10-19T12:02:47.743Z,1020.7
2022-10-19T12:03:51.101Z,1020.8
2022-10-19T12:04:53.766Z,1020.8
2022-10-19T12:05:57.512Z,1020.7
2022-10-19T12:07:01.463Z,1020.7
2022-10-19T12:08:04.642Z,1020.8
2022-10-19T12:09:07.726Z,1020.8
2022-10-19T12:10:11.434Z,1020.8
2022-10-19T12:11:13.839Z,1020.8
2022-10-19T12:12:16.969Z,1020.7
2022-10-19T12:13:20.971Z,1020.8
2022-10-19T12:14:24.037Z,1020.7
2022-10-19T12:15:27.482Z,1020.8
2022-10-19T12:16:31.077Z,1020.7
2022-10-19T12:17:35.447Z,1020.8
2022-10-19T12:18:39.424Z,1020.7
2022-10-19T12:19:43.161Z,1020.7
2022-10-19T12:20:45.948Z,1020.7
2022-10-19T12:21:48.881Z,1020.7
2022-10-19T12:22:52.771Z,1020.6
2022-10-19T12:23:55.867Z,1020.6
2022-10-19T12:24:58.659Z,1020.6
2022-10-19T12:26:02.359Z,1020.6
2022-10-19T12:27:04.793Z,1020.6
2022-10-19T12:28:08.177Z,1020.6
2022-10-19T12:29:11.272Z,1020.6
2022-10-19T12:30:14.697Z,1020.5
2022-10-19T12:31:17.285Z,1020.6
2022-10-19T12:32:20.464Z,1020.5
2022-10-19T12:33:23.251Z,1020.5
2022-10-19T12:34:26.426Z,1020.5
2022-10-19T12:35:29.500Z,1020.5
2022-10-19T12:36:32.566Z,1020.5
2022-10-19T12:37:36.667Z,1020.5
2022-10-19T12:38:46.881Z,1020.5
2022-10-19T12:40:02.795Z,1020.5
2022-10-19T12:41:06.533Z,1020.6
2022-10-19T12:42:09.766Z,1020.6
2022-10-19T12:43:13.171Z,1020.6
2022-10-19T12:44:17.279Z,1020.5
2022-10-19T12:45:20.338Z,1020.6
2022-10-19T12:46:23.246Z,1020.6
2022-10-19T12:47:26.320Z,1020.5
2022-10-19T12:48:29.195Z,1020.5
2022-10-19T12:49:32.290Z,1020.5
2022-10-19T12:50:38.946Z,1020.5
2022-10-19T12:51:42.012Z,1020.5
2022-10-19T12:52:45.712Z,1020.5
2022-10-19T12:53:49.294Z,1020.5
2022-10-19T12:54:52.521Z,1020.5
2022-10-19T12:55:55.683Z,1020.5
2022-10-19T12:56:58.849Z,1020.5
2022-10-19T12:58:01.922Z,1020.5
2022-10-19T12:59:05.337Z,1020.5
2022-10-19T13:00:07.841Z,1020.5
2022-10-19T13:01:11.462Z,1020.5
2022-10-19T13:02:15.392Z,1020.5
2022-10-19T13:03:17.974Z,1020.4
2022-10-19T13:04:21.510Z,1020.4
2022-10-19T13:05:25.233Z,1020.4
2022-10-19T13:06:28.380Z,1020.4
2022-10-19T13:07:32.532Z,1020.4
2022-10-19T13:08:37.408Z,1020.4
2022-10-19T13:09:41.321Z,1020.4
2022-10-19T13:10:44.485Z,1020.4
2022-10-19T13:11:48.167Z,1020.4
2022-10-19T13:12:51.158Z,1020.3
2022-10-19T13:13:54.044Z,1020.3
2022-10-19T13:14:57.405Z,1020.3
2022-10-19T13:16:00.194Z,1020.3
2022-10-19T13:17:03.182Z,1020.3
2022-10-19T13:18:06.712Z,1020.3
2022-10-19T13:19:09.860Z,1020.3
2022-10-19T13:20:13.010Z,1020.3
2022-10-19T13:21:16.742Z,1020.3
2022-10-19T13:22:19.622Z,1020.3
2022-10-19T13:23:22.951Z,1020.3
2022-10-19T13:24:26.610Z,1020.4
2022-10-19T13:25:30.978Z,1020.4
2022-10-19T13:26:34.721Z,1020.3
2022-10-19T13:27:39.342Z,1020.3
2022-10-19T13:28:43.101Z,1020.3
2022-10-19T13:29:47.310Z,1020.3